RAMO2: Caney River, Ramona, OK

Data processed at Thu May 23 2019 23:50


All information presented herein is the property of the government of the United States of America and may be revised or deleted at any time without prior notice.
Dissemination of this information without the expressed written consent of the Public Affairs Office, Tulsa District U.S. Army Corps of Engineers is strictly prohibited.
These data are gathered electronically and, as presented, have not undergone any form of quality control. These data are not guaranteed to be valid or correct.
Go to home page.
Go to station list.
Go to home page.

Upstream stations:

Downstream station:
Previous Day
Next Day
Current Day
    
SHEF ID:       RAMO2     Caney River near Ramona, OK
STATION TYPE:  
Regulating: Stage =    26.00, Flow =    14989

               PRECIP     STAGE  STAGE(2)  RIV-FLOW   VOLTAGE  BAT-LOAD
                   in        ft        ft       cfs      volt      volt
              Ccp-Rev   Ccp-Rev   Ccp-Rev   Ccp-Rev   Ccp-Rev   Ccp-Rev
(US/Central)
05/23 00:00      0.85     29.38     24.13     51528     12.60      ----
05/23 01:00      0.37     29.41     24.26     52376     12.60      ----
05/23 02:00      0.94     29.55     24.47     56106     12.60      ----
05/23 03:00      0.05     29.56     24.58     56329     12.60      ----
05/23 04:00      0.12     29.59     24.68     57005     12.60      ----
05/23 05:00      0.03     29.50     24.78     55000     12.60      ----
05/23 06:00      0.00     29.46     24.87     46788     12.60      ----
05/23 07:00      0.00     29.42     24.94     45644     12.60      ----
05/23 08:00      0.00     29.41     25.13     45362     12.60      ----
05/23 09:00      0.00     29.37     25.56     44251     12.60      ----
05/23 10:00      0.00     29.37     25.99     44251     12.70      ----
05/23 11:00      0.00     29.40     26.91     45082     13.00      ----
05/23 12:00      0.00     29.38     27.42     44526     13.60      ----
05/23 13:00      0.00     29.39     27.80     44803     13.70      ----
05/23 14:00      0.00     29.35     27.87     43704     13.70      ----
05/23 15:00      0.00     29.32     28.12     42897     13.70      ----
05/23 16:00      0.00     29.35     28.01     43704     13.60      ----
05/23 17:00      0.00     29.33     28.02     43165     13.60      ----
05/23 18:00      0.00     29.27     28.04     41582     13.60      ----
05/23 19:00      0.00     29.22     28.00     39851     13.30      ----
05/23 20:00      0.00     29.24     27.93     40687     12.70      ----
05/23 21:00      0.00     29.15     27.80     37051     12.70      ----
05/23 22:00      0.00     29.12     27.65     35909     12.60      ----
05/23 23:00      0.00     29.08     27.78     34440     12.60      ----